createdAt,value
2022-11-20T19:11:00.621Z,96225.06
2022-11-20T19:13:27.004Z,96220.44
2022-11-20T19:15:53.378Z,96228.72
2022-11-20T19:18:19.758Z,96222.88
2022-11-20T19:20:46.149Z,96229.81
2022-11-20T19:23:12.553Z,96235.44
2022-11-20T19:25:38.999Z,96243.50
2022-11-20T19:28:05.386Z,96248.59
2022-11-20T19:30:31.785Z,96247.91
2022-11-20T19:32:58.167Z,96247.91
2022-11-20T19:35:24.575Z,96255.63
2022-11-20T19:37:50.955Z,96255.63
2022-11-20T19:40:17.321Z,96248.13
2022-11-20T19:42:43.718Z,96253.53
2022-11-20T19:45:10.112Z,96258.41
2022-11-20T19:48:06.058Z,96267.53
2022-11-20T19:50:22.863Z,96261.47
2022-11-20T19:52:51.104Z,96253.31
2022-11-20T19:55:20.783Z,96247.25
2022-11-20T19:57:47.170Z,96245.59
2022-11-20T20:00:15.597Z,96248.78
2022-11-20T20:02:44.727Z,96244.38
2022-11-20T20:05:11.105Z,96243.59
2022-11-20T20:07:37.498Z,96243.47
2022-11-20T20:10:03.905Z,96241.47
2022-11-20T20:12:30.274Z,96244.00
2022-11-20T20:14:56.667Z,96239.72
2022-11-20T20:17:23.049Z,96247.34
2022-11-20T20:19:49.505Z,96252.31
2022-11-20T20:22:15.884Z,96254.19
2022-11-20T20:24:42.273Z,96249.22
2022-11-20T20:27:08.675Z,96248.44
2022-11-20T20:29:35.075Z,96264.03
2022-11-20T20:32:01.438Z,96259.50
2022-11-20T20:34:27.811Z,96262.38
2022-11-20T20:36:54.209Z,96271.97
2022-11-20T20:39:20.779Z,96292.41
2022-11-20T20:41:47.437Z,96306.13
2022-11-20T20:44:13.833Z,96323.00
2022-11-20T20:46:40.232Z,96326.00
2022-11-20T20:49:06.612Z,96335.16
2022-11-20T20:51:32.984Z,96333.72
2022-11-20T20:53:59.379Z,96332.19
2022-11-20T20:56:25.788Z,96336.25
2022-11-20T20:58:52.175Z,96329.75
2022-11-20T21:01:18.646Z,96327.75
2022-11-20T21:03:45.082Z,96337.56
2022-11-20T21:06:11.450Z,96344.44
2022-11-20T21:08:40.328Z,96347.53
2022-11-20T21:11:07.347Z,96350.97
2022-11-20T21:13:33.733Z,96342.09
2022-11-20T21:16:00.122Z,96348.19
2022-11-20T21:18:26.501Z,96350.50
2022-11-20T21:20:52.873Z,96354.25
2022-11-20T21:23:19.267Z,96352.06
2022-11-20T21:25:45.639Z,96353.94
2022-11-20T21:28:16.808Z,96352.72
2022-11-20T21:30:44.603Z,96360.78
2022-11-20T21:33:10.985Z,96371.06
2022-11-20T21:35:37.371Z,96380.44
2022-11-20T21:38:03.777Z,96382.66
2022-11-20T21:40:30.144Z,96385.28
2022-11-20T21:42:56.528Z,96379.66
2022-11-20T21:45:22.921Z,96393.25
2022-11-20T21:47:49.298Z,96389.19
2022-11-20T21:50:15.683Z,96402.66
2022-11-20T21:52:42.071Z,96393.25
2022-11-20T21:55:08.466Z,96383.00
2022-11-20T21:57:34.848Z,96383.41
2022-11-20T22:00:01.234Z,96375.78
2022-11-20T22:02:27.618Z,96398.00
2022-11-20T22:04:53.995Z,96384.88
2022-11-20T22:07:20.408Z,96382.00
2022-11-20T22:09:46.913Z,96379.75
2022-11-20T22:12:13.285Z,96363.53
2022-11-20T22:14:39.642Z,96364.19
2022-11-20T22:17:06.007Z,96351.69
2022-11-20T22:19:32.388Z,96352.13
2022-11-20T22:21:58.746Z,96353.38
2022-11-20T22:24:25.423Z,96354.91
2022-11-20T22:26:52.113Z,96351.50
2022-11-20T22:29:18.508Z,96345.06
2022-11-20T22:31:44.878Z,96354.78
2022-11-20T22:34:11.242Z,96351.81
2022-11-20T22:36:37.704Z,96345.72
2022-11-20T22:39:04.065Z,96341.53
2022-11-20T22:41:30.450Z,96345.63
2022-11-20T22:43:56.855Z,96347.06
2022-11-20T22:46:23.241Z,96356.81
2022-11-20T22:48:49.636Z,96364.75
2022-11-20T22:51:16.034Z,96357.91
2022-11-20T22:53:42.409Z,96348.72
2022-11-20T22:56:08.770Z,96351.06
2022-11-20T22:58:35.135Z,96361.56
2022-11-20T23:01:01.518Z,96350.97
2022-11-20T23:03:27.934Z,96347.09
2022-11-20T23:05:54.306Z,96347.09
2022-11-20T23:08:20.671Z,96348.84
2022-11-20T23:10:47.063Z,96341.69
2022-11-20T23:13:13.433Z,96343.22
2022-11-20T23:15:39.805Z,96346.97
2022-11-20T23:18:06.189Z,96356.38
2022-11-20T23:20:32.569Z,96351.84
2022-11-20T23:22:58.941Z,96364.75
2022-11-20T23:25:25.300Z,96360.56
2022-11-20T23:27:51.700Z,96350.84
2022-11-20T23:30:18.062Z,96360.00
2022-11-20T23:32:44.418Z,96356.91
2022-11-20T23:35:10.797Z,96347.63
2022-11-20T23:37:37.163Z,96345.44
2022-11-20T23:40:03.628Z,96349.97
2022-11-20T23:42:30.017Z,96348.41
2022-11-20T23:44:56.409Z,96353.16
2022-11-20T23:47:22.790Z,96355.50
2022-11-20T23:49:49.279Z,96340.78
2022-11-20T23:52:15.638Z,96339.25
2022-11-20T23:54:42.005Z,96338.03
2022-11-20T23:57:08.374Z,96337.25
2022-11-20T23:59:34.758Z,96330.09
